createdAt,value
2022-11-22T00:01:28.971Z,46.00
2022-11-22T00:03:57.765Z,46.00
2022-11-22T00:06:30.661Z,46.10
2022-11-22T00:08:59.436Z,46.20
2022-11-22T00:11:28.165Z,46.10
2022-11-22T00:13:56.909Z,45.90
2022-11-22T00:16:25.630Z,46.00
2022-11-22T00:18:54.343Z,45.90
2022-11-22T00:21:23.197Z,45.90
2022-11-22T00:23:58.181Z,45.40
2022-11-22T00:26:27.034Z,46.00
2022-11-22T00:28:55.792Z,46.90
2022-11-22T00:31:24.901Z,47.00
2022-11-22T00:33:53.695Z,47.20
2022-11-22T00:36:22.488Z,47.10
2022-11-22T00:38:53.010Z,47.80
2022-11-22T00:41:21.747Z,47.80
2022-11-22T00:43:50.519Z,47.70
2022-11-22T00:46:19.507Z,47.60
2022-11-22T00:48:48.355Z,47.60
2022-11-22T00:51:17.267Z,47.40
2022-11-22T00:53:46.238Z,47.10
2022-11-22T00:56:16.525Z,47.00
2022-11-22T00:58:45.385Z,46.90
2022-11-22T01:01:14.187Z,46.80
2022-11-22T01:03:43.065Z,46.10
2022-11-22T01:06:12.063Z,46.00
2022-11-22T01:08:40.722Z,45.60
2022-11-22T01:11:09.724Z,45.70
2022-11-22T01:13:40.042Z,45.60
2022-11-22T01:16:12.039Z,45.90
2022-11-22T01:18:40.997Z,46.10
2022-11-22T01:21:10.277Z,46.60
2022-11-22T01:23:39.891Z,47.10
2022-11-22T01:26:09.696Z,47.70
2022-11-22T01:28:39.886Z,48.20
2022-11-22T01:31:08.595Z,48.40
2022-11-22T01:33:37.446Z,48.70
2022-11-22T01:36:06.789Z,48.80
2022-11-22T01:38:35.920Z,48.70
2022-11-22T01:41:04.714Z,48.60
2022-11-22T01:43:33.374Z,48.60
2022-11-22T01:46:07.695Z,48.20
2022-11-22T01:48:51.806Z,47.80
2022-11-22T01:51:29.764Z,47.70
2022-11-22T01:54:02.743Z,47.50
2022-11-22T01:56:33.723Z,47.20
2022-11-22T01:59:09.648Z,47.10
2022-11-22T02:01:39.941Z,46.90
2022-11-22T02:04:15.389Z,47.00
2022-11-22T02:06:53.058Z,47.00
2022-11-22T02:09:24.563Z,47.00
2022-11-22T02:11:57.250Z,46.80
2022-11-22T02:14:28.889Z,47.00
2022-11-22T02:16:59.237Z,47.10
2022-11-22T02:19:43.074Z,47.00
2022-11-22T02:22:26.535Z,47.00
2022-11-22T02:25:04.634Z,47.00
2022-11-22T02:27:35.006Z,46.90
2022-11-22T02:30:03.822Z,46.80
2022-11-22T02:32:32.647Z,47.00
2022-11-22T02:35:01.574Z,46.80
2022-11-22T02:37:34.340Z,46.70
2022-11-22T02:40:08.968Z,46.90
2022-11-22T02:42:39.607Z,47.00
2022-11-22T02:45:09.646Z,47.00
2022-11-22T02:47:38.352Z,47.30
2022-11-22T02:50:08.498Z,47.40
2022-11-22T02:52:37.473Z,47.30
2022-11-22T02:55:07.146Z,47.20
2022-11-22T02:57:35.939Z,47.30
2022-11-22T03:00:08.359Z,47.40
2022-11-22T03:02:37.349Z,47.40
2022-11-22T03:05:06.850Z,47.40
2022-11-22T03:07:36.146Z,47.40
2022-11-22T03:10:05.634Z,47.40
2022-11-22T03:12:34.498Z,47.60
2022-11-22T03:15:03.389Z,47.40
2022-11-22T03:17:33.540Z,47.70
2022-11-22T03:20:02.531Z,47.80
2022-11-22T03:22:31.286Z,47.90
2022-11-22T03:25:00.086Z,47.80
2022-11-22T03:27:28.853Z,48.00
2022-11-22T03:29:57.619Z,47.90
2022-11-22T03:32:26.392Z,47.90
2022-11-22T03:34:56.598Z,48.00
2022-11-22T03:37:25.435Z,48.30
2022-11-22T03:39:54.282Z,49.30
2022-11-22T03:42:23.133Z,50.30
2022-11-22T03:44:51.839Z,50.70
2022-11-22T03:47:20.857Z,50.80
2022-11-22T03:49:49.742Z,50.60
2022-11-22T03:52:19.935Z,50.60
2022-11-22T03:54:48.975Z,50.10
2022-11-22T03:57:18.300Z,49.90
2022-11-22T03:59:47.127Z,49.70
2022-11-22T04:02:17.165Z,49.20
2022-11-22T04:04:46.099Z,49.20
2022-11-22T04:07:14.967Z,49.10
2022-11-22T04:09:45.260Z,49.10
2022-11-22T04:12:13.935Z,49.10
2022-11-22T04:15:00.158Z,49.00
2022-11-22T04:17:45.203Z,48.80
2022-11-22T04:20:35.762Z,48.50
2022-11-22T04:23:07.423Z,48.40
2022-11-22T04:25:39.228Z,48.20
2022-11-22T04:28:10.241Z,48.20
2022-11-22T04:30:56.886Z,47.80
2022-11-22T04:33:26.980Z,47.70
2022-11-22T04:35:56.140Z,47.60
2022-11-22T04:38:25.469Z,47.60
2022-11-22T04:40:55.973Z,47.80
2022-11-22T04:43:44.991Z,47.90
2022-11-22T04:46:16.300Z,47.90
2022-11-22T04:48:45.170Z,48.10
2022-11-22T04:51:33.548Z,48.10
2022-11-22T04:54:02.583Z,47.80
2022-11-22T04:56:32.967Z,48.00
2022-11-22T04:59:01.986Z,47.90
2022-11-22T05:01:30.826Z,47.90
2022-11-22T05:03:59.704Z,47.80
2022-11-22T05:06:28.391Z,47.80
2022-11-22T05:08:57.356Z,47.40
2022-11-22T05:11:26.554Z,47.30
2022-11-22T05:13:56.804Z,47.00
2022-11-22T05:16:25.556Z,47.40
2022-11-22T05:19:00.271Z,47.50
2022-11-22T05:21:30.992Z,47.70
2022-11-22T05:23:58.653Z,48.10
2022-11-22T05:26:30.996Z,48.30
2022-11-22T05:29:06.054Z,48.50
2022-11-22T05:31:37.480Z,48.70
2022-11-22T05:34:06.447Z,48.60
2022-11-22T05:36:37.067Z,48.50
2022-11-22T05:39:06.645Z,48.10
2022-11-22T05:41:35.457Z,48.20
2022-11-22T05:44:05.763Z,48.40
2022-11-22T05:46:34.541Z,48.40
2022-11-22T05:49:03.253Z,47.90
2022-11-22T05:51:34.535Z,48.20
2022-11-22T05:54:04.088Z,48.20
2022-11-22T05:56:32.983Z,48.00
2022-11-22T05:59:01.668Z,48.10
2022-11-22T06:01:31.974Z,48.20
2022-11-22T06:04:00.625Z,48.10
2022-11-22T06:06:29.562Z,48.00
2022-11-22T06:08:59.675Z,48.30
2022-11-22T06:11:29.662Z,48.50
2022-11-22T06:14:03.347Z,48.70
2022-11-22T06:16:33.759Z,48.70
2022-11-22T06:19:02.552Z,48.40
2022-11-22T06:21:31.442Z,47.80
2022-11-22T06:24:00.275Z,47.70
2022-11-22T06:26:30.759Z,48.20
2022-11-22T06:29:01.252Z,48.50
2022-11-22T06:31:30.572Z,48.50
2022-11-22T06:34:02.295Z,48.40
2022-11-22T06:36:33.685Z,48.20
2022-11-22T06:39:04.012Z,48.10
2022-11-22T06:41:36.616Z,48.20
2022-11-22T06:44:08.433Z,48.00
2022-11-22T06:46:39.139Z,47.80
2022-11-22T06:49:09.462Z,47.90
2022-11-22T06:51:38.272Z,48.00
2022-11-22T06:54:07.382Z,48.00
2022-11-22T07:08:06.616Z,47.80
2022-11-22T07:10:39.193Z,47.70
2022-11-22T07:13:10.219Z,48.00
2022-11-22T07:15:38.841Z,48.10
2022-11-22T07:18:09.825Z,47.70
2022-11-22T07:20:39.851Z,47.70
2022-11-22T07:23:10.624Z,47.60
2022-11-22T07:25:39.172Z,47.80
2022-11-22T07:28:07.707Z,48.10
2022-11-22T07:30:39.880Z,48.20
2022-11-22T07:33:12.461Z,48.40
2022-11-22T07:36:34.979Z,48.50
2022-11-22T07:39:05.331Z,48.70
2022-11-22T07:41:33.970Z,48.70
2022-11-22T07:44:02.789Z,48.70
2022-11-22T07:46:33.245Z,49.00
2022-11-22T07:49:03.602Z,49.30
2022-11-22T07:51:33.633Z,49.50
2022-11-22T07:54:02.210Z,49.70
2022-11-22T07:56:32.462Z,49.40
2022-11-22T07:59:01.303Z,49.50
2022-11-22T08:01:29.882Z,49.40
2022-11-22T08:03:58.529Z,49.20
2022-11-22T08:06:27.809Z,49.20
2022-11-22T08:09:02.028Z,49.10
2022-11-22T08:11:30.977Z,48.80
2022-11-22T08:13:59.506Z,48.80
2022-11-22T08:16:28.054Z,48.60
2022-11-22T08:18:57.278Z,48.40
2022-11-22T08:21:26.097Z,48.20
2022-11-22T08:24:00.567Z,48.00
2022-11-22T08:26:29.080Z,48.20
2022-11-22T08:28:57.564Z,48.60
2022-11-22T08:31:27.241Z,49.10
2022-11-22T08:33:55.804Z,49.00
2022-11-22T08:36:24.779Z,49.20
2022-11-22T08:38:53.304Z,49.30
2022-11-22T08:41:23.988Z,49.10
2022-11-22T08:43:53.963Z,49.20
2022-11-22T08:46:22.626Z,49.00
2022-11-22T08:48:54.316Z,49.00
2022-11-22T08:56:06.866Z,48.70
2022-11-22T08:58:39.629Z,49.00
2022-11-22T09:01:15.781Z,49.40
2022-11-22T09:03:45.308Z,49.60
2022-11-22T09:11:54.032Z,49.00
2022-11-22T09:14:24.549Z,48.90
2022-11-22T09:16:54.301Z,48.90
2022-11-22T09:19:22.913Z,48.90
2022-11-22T09:21:51.527Z,48.50
2022-11-22T09:24:20.140Z,48.60
2022-11-22T09:26:48.680Z,48.70
2022-11-22T09:29:17.201Z,48.70
2022-11-22T09:31:47.133Z,48.90
2022-11-22T09:34:15.645Z,49.00
2022-11-22T09:36:44.627Z,49.00
2022-11-22T09:39:13.953Z,49.40
2022-11-22T09:42:12.596Z,49.40
2022-11-22T09:45:08.403Z,49.60
2022-11-22T09:47:51.669Z,50.00
2022-11-22T09:50:32.041Z,50.00
2022-11-22T09:53:09.799Z,50.00
2022-11-22T09:55:46.436Z,50.30
2022-11-22T09:58:30.765Z,50.50
2022-11-22T10:01:11.357Z,50.60
2022-11-22T10:03:50.249Z,50.80
2022-11-22T10:06:25.887Z,51.00
2022-11-22T10:09:08.457Z,51.10
2022-11-22T10:11:46.548Z,51.30
2022-11-22T10:14:31.495Z,50.90
2022-11-22T10:17:14.701Z,51.10
2022-11-22T10:19:54.094Z,51.00
2022-11-22T10:22:22.963Z,50.80
2022-11-22T10:24:51.793Z,51.00
2022-11-22T10:27:20.387Z,51.00
2022-11-22T10:30:01.357Z,51.20
2022-11-22T10:32:39.618Z,51.00
2022-11-22T10:35:36.245Z,51.10
2022-11-22T10:38:34.460Z,50.90
2022-11-22T10:41:16.636Z,51.20
2022-11-22T10:43:59.620Z,50.00
2022-11-22T10:46:43.211Z,49.70
2022-11-22T10:49:29.233Z,49.30
2022-11-22T10:52:10.702Z,49.50
2022-11-22T10:54:53.715Z,49.70
2022-11-22T10:57:35.102Z,49.30
2022-11-22T11:00:21.885Z,48.70
2022-11-22T11:03:14.259Z,48.70
2022-11-22T11:06:21.014Z,48.20
2022-11-22T11:11:38.082Z,48.70
2022-11-22T11:14:18.655Z,48.70
2022-11-22T11:16:50.812Z,49.30
2022-11-22T11:19:22.548Z,49.20
2022-11-22T11:22:00.927Z,49.20
2022-11-22T11:24:32.961Z,49.20
2022-11-22T11:27:02.455Z,48.60
2022-11-22T11:29:45.899Z,48.70
2022-11-22T11:32:17.260Z,48.50
2022-11-22T11:34:56.096Z,48.20
2022-11-22T11:37:32.907Z,47.70
2022-11-22T11:40:03.016Z,47.60
2022-11-22T11:42:34.619Z,47.00
2022-11-22T11:45:29.281Z,46.40
2022-11-22T11:47:58.177Z,44.50
2022-11-22T11:50:30.215Z,44.10
2022-11-22T11:53:06.935Z,45.30
2022-11-22T11:55:38.825Z,45.50
2022-11-22T11:58:22.136Z,45.40
2022-11-22T12:00:50.827Z,45.00
2022-11-22T12:03:21.690Z,45.10
2022-11-22T12:06:13.586Z,44.10
2022-11-22T12:08:42.831Z,43.30
2022-11-22T12:11:21.860Z,43.00
2022-11-22T12:14:19.183Z,42.70
2022-11-22T12:16:51.012Z,42.80
2022-11-22T12:19:33.650Z,42.00
2022-11-22T12:22:29.378Z,41.60
2022-11-22T12:25:35.014Z,40.40
2022-11-22T12:28:19.232Z,40.50
2022-11-22T12:30:56.506Z,39.90
2022-11-22T12:33:32.658Z,40.30
2022-11-22T12:36:03.850Z,38.10
2022-11-22T12:38:40.187Z,37.80
2022-11-22T12:41:14.645Z,37.80
2022-11-22T12:43:50.882Z,38.90
2022-11-22T12:46:26.742Z,39.20
2022-11-22T12:49:00.949Z,39.00
2022-11-22T12:51:41.315Z,39.20
2022-11-22T12:54:18.567Z,38.40
2022-11-22T12:56:52.953Z,38.20
2022-11-22T12:59:37.494Z,38.40
2022-11-22T13:02:23.232Z,38.40
2022-11-22T13:05:00.299Z,38.40
2022-11-22T13:07:50.304Z,38.10
2022-11-22T13:10:38.675Z,38.20
2022-11-22T13:13:25.529Z,38.30
2022-11-22T13:16:01.380Z,38.00
2022-11-22T13:18:36.324Z,37.70
2022-11-22T13:21:16.504Z,37.80
2022-11-22T13:24:19.739Z,37.60
2022-11-22T13:27:02.196Z,37.10
2022-11-22T13:29:35.717Z,37.40
2022-11-22T13:32:17.756Z,37.30
2022-11-22T13:35:06.937Z,36.60
2022-11-22T13:37:40.145Z,37.20
2022-11-22T13:40:26.189Z,36.90
2022-11-22T13:43:51.443Z,37.60
2022-11-22T13:46:57.314Z,37.60
2022-11-22T13:49:48.246Z,37.70
2022-11-22T13:52:52.565Z,38.00
2022-11-22T13:55:41.579Z,37.60
2022-11-22T13:58:55.689Z,37.40
2022-11-22T14:01:58.124Z,37.60
2022-11-22T14:04:41.989Z,36.60
2022-11-22T14:07:36.174Z,36.60
2022-11-22T14:10:21.907Z,36.80
2022-11-22T14:13:24.989Z,36.60
2022-11-22T14:16:07.494Z,36.80
2022-11-22T14:18:57.754Z,36.00
2022-11-22T14:21:56.708Z,35.30
2022-11-22T14:24:43.690Z,36.20
2022-11-22T14:27:31.636Z,35.80
2022-11-22T14:30:14.126Z,36.30
2022-11-22T14:32:52.522Z,36.90
2022-11-22T14:35:32.582Z,37.50
2022-11-22T14:38:41.215Z,37.80
2022-11-22T14:41:44.837Z,38.00
2022-11-22T14:44:26.768Z,38.00
2022-11-22T14:47:03.617Z,38.00
2022-11-22T14:49:43.621Z,38.20
2022-11-22T14:52:23.851Z,39.00
2022-11-22T14:54:59.387Z,38.80
2022-11-22T14:57:32.148Z,38.90
2022-11-22T15:00:19.029Z,38.90
2022-11-22T15:03:41.240Z,39.20
2022-11-22T15:09:16.119Z,39.70
2022-11-22T15:09:58.146Z,39.60
2022-11-22T15:12:57.020Z,39.90
2022-11-22T15:57:35.576Z,41.30
2022-11-22T16:00:11.248Z,41.30
2022-11-22T16:02:50.101Z,41.10
2022-11-22T16:06:07.806Z,41.30
2022-11-22T16:08:18.674Z,41.50
2022-11-22T16:10:52.142Z,41.60
2022-11-22T16:13:34.097Z,41.30
2022-11-22T16:16:22.555Z,41.50
2022-11-22T16:18:53.190Z,41.80
2022-11-22T16:21:27.770Z,42.40
2022-11-22T16:24:19.520Z,42.90
2022-11-22T16:26:59.502Z,42.90
2022-11-22T16:29:33.281Z,42.90
2022-11-22T16:32:11.183Z,42.70
2022-11-22T16:34:42.938Z,42.90
2022-11-22T16:37:27.855Z,43.00
2022-11-22T16:39:57.633Z,43.20
2022-11-22T16:42:27.281Z,43.60
2022-11-22T16:45:03.560Z,44.10
2022-11-22T16:47:32.652Z,44.90
2022-11-22T16:50:01.160Z,45.40
2022-11-22T16:52:29.656Z,45.70
2022-11-22T16:54:58.883Z,45.60
2022-11-22T16:57:27.413Z,45.40
2022-11-22T16:59:57.376Z,45.20
2022-11-22T17:02:28.067Z,45.10
2022-11-22T17:04:56.739Z,44.90
2022-11-22T17:07:25.347Z,44.70
2022-11-22T17:09:55.874Z,44.40
2022-11-22T17:12:33.254Z,44.20
2022-11-22T17:15:03.868Z,44.20
2022-11-22T17:17:32.360Z,44.40
2022-11-22T17:20:00.836Z,44.50
2022-11-22T17:22:29.432Z,44.70
2022-11-22T17:24:58.871Z,44.80
2022-11-22T17:27:27.357Z,44.80
2022-11-22T17:29:55.983Z,44.70
2022-11-22T17:32:25.887Z,44.50
2022-11-22T17:34:55.352Z,44.50
2022-11-22T17:37:23.805Z,44.50
2022-11-22T17:39:52.985Z,44.50
2022-11-22T17:42:21.551Z,44.50
2022-11-22T17:44:50.884Z,44.30
2022-11-22T17:47:19.359Z,44.10
2022-11-22T17:49:49.759Z,44.10
2022-11-22T17:52:18.247Z,44.00
2022-11-22T17:54:46.721Z,44.00
2022-11-22T17:57:15.240Z,44.00
2022-11-22T17:59:44.984Z,44.10
2022-11-22T18:02:13.502Z,44.00
2022-11-22T18:04:44.517Z,44.20
2022-11-22T18:07:14.473Z,44.50
2022-11-22T18:09:42.992Z,44.70
2022-11-22T18:12:11.413Z,44.70
2022-11-22T18:14:39.894Z,44.50
2022-11-22T18:17:08.373Z,44.60
2022-11-22T18:19:36.914Z,44.70
2022-11-22T18:22:05.419Z,44.80
2022-11-22T18:24:35.336Z,44.90
2022-11-22T18:27:04.482Z,44.80
2022-11-22T18:29:42.120Z,44.80
2022-11-22T18:32:11.699Z,44.80
2022-11-22T18:34:41.514Z,45.00
2022-11-22T18:37:10.058Z,45.00
2022-11-22T18:39:40.684Z,45.40
2022-11-22T18:42:14.727Z,45.80
2022-11-22T18:44:43.372Z,45.80
2022-11-22T18:47:11.919Z,45.80
2022-11-22T18:49:40.493Z,46.20
2022-11-22T18:52:11.887Z,46.50
2022-11-22T18:54:44.838Z,46.50
2022-11-22T18:57:13.288Z,46.40
2022-11-22T18:59:41.820Z,46.40
2022-11-22T19:02:10.338Z,46.30
2022-11-22T19:04:39.101Z,46.30
2022-11-22T19:07:07.589Z,46.10
2022-11-22T19:09:36.228Z,46.30
2022-11-22T19:12:06.885Z,46.60
2022-11-22T19:14:35.373Z,46.50
2022-11-22T19:17:03.846Z,46.70
2022-11-22T19:19:32.875Z,46.90
2022-11-22T19:22:02.197Z,47.10
2022-11-22T19:24:31.483Z,47.60
2022-11-22T19:27:00.176Z,47.80
2022-11-22T19:29:30.682Z,47.90
2022-11-22T19:31:59.457Z,47.50
2022-11-22T19:34:29.820Z,47.20
2022-11-22T19:37:00.349Z,46.80
2022-11-22T19:39:29.186Z,46.20
2022-11-22T19:41:57.816Z,46.40
2022-11-22T19:44:26.376Z,46.20
2022-11-22T19:46:56.236Z,46.40
2022-11-22T19:49:24.734Z,46.50
2022-11-22T19:51:53.280Z,46.30
2022-11-22T19:54:21.912Z,46.40
2022-11-22T19:56:50.474Z,46.20
2022-11-22T19:59:18.928Z,46.30
2022-11-22T20:01:47.433Z,46.30
2022-11-22T20:04:17.466Z,46.30
2022-11-22T20:06:49.934Z,45.90
2022-11-22T20:09:19.093Z,45.80
2022-11-22T20:11:47.719Z,45.70
2022-11-22T20:14:16.465Z,45.50
2022-11-22T20:16:45.179Z,45.30
2022-11-22T20:19:15.336Z,45.20
2022-11-22T20:21:46.103Z,45.20
2022-11-22T20:24:16.316Z,45.00
2022-11-22T20:26:45.105Z,45.00
2022-11-22T20:29:15.289Z,45.20
2022-11-22T20:31:44.110Z,45.30
2022-11-22T20:34:13.977Z,45.20
2022-11-22T20:36:44.301Z,45.20
2022-11-22T20:39:13.068Z,44.90
2022-11-22T20:41:42.029Z,44.70
2022-11-22T20:44:14.290Z,44.70
2022-11-22T20:46:46.298Z,44.70
2022-11-22T20:49:15.012Z,44.10
2022-11-22T20:51:45.187Z,44.30
2022-11-22T20:54:14.157Z,44.30
2022-11-22T20:56:44.121Z,44.60
2022-11-22T20:59:13.173Z,44.60
2022-11-22T21:01:44.474Z,44.60
2022-11-22T21:04:19.373Z,44.60
2022-11-22T21:06:59.616Z,44.50
2022-11-22T21:09:29.101Z,44.20
2022-11-22T21:12:04.361Z,44.20
2022-11-22T21:14:34.375Z,44.40
2022-11-22T21:17:22.638Z,44.50
2022-11-22T21:19:51.864Z,44.60
2022-11-22T21:22:21.764Z,44.60
2022-11-22T21:24:50.259Z,45.20
2022-11-22T21:27:18.785Z,45.40
2022-11-22T21:29:47.295Z,45.50
2022-11-22T21:32:16.401Z,45.40
2022-11-22T21:34:44.852Z,45.00
2022-11-22T21:37:13.377Z,45.00
2022-11-22T21:39:43.294Z,45.10
2022-11-22T21:42:12.075Z,45.20
2022-11-22T21:44:40.542Z,45.20
2022-11-22T21:47:09.055Z,45.10
2022-11-22T21:49:37.597Z,45.30
2022-11-22T21:52:06.400Z,45.30
2022-11-22T21:54:35.043Z,45.30
2022-11-22T21:57:05.043Z,45.20
2022-11-22T21:59:33.766Z,45.00
2022-11-22T22:02:02.672Z,44.80
2022-11-22T22:04:31.189Z,44.70
2022-11-22T22:06:59.788Z,44.60
2022-11-22T22:09:28.354Z,44.50
2022-11-22T22:11:57.005Z,44.70
2022-11-22T22:14:27.936Z,44.60
2022-11-22T22:16:56.409Z,44.40
2022-11-22T22:19:24.911Z,44.20
2022-11-22T22:21:53.455Z,44.10
2022-11-22T22:24:21.990Z,44.20
2022-11-22T22:26:50.723Z,44.40
2022-11-22T22:29:19.134Z,44.60
2022-11-22T22:31:49.140Z,44.60
2022-11-22T22:34:18.629Z,44.60
2022-11-22T22:36:47.207Z,44.90
2022-11-22T22:39:15.705Z,44.90
2022-11-22T22:41:44.216Z,44.50
2022-11-22T22:44:13.829Z,44.30
2022-11-22T22:46:42.591Z,44.30
2022-11-22T22:49:12.615Z,44.30
2022-11-22T22:51:41.166Z,44.40
2022-11-22T22:54:11.471Z,44.50
2022-11-22T22:56:41.609Z,44.50
2022-11-22T22:59:10.397Z,44.40
2022-11-22T23:01:39.394Z,44.50
2022-11-22T23:04:09.149Z,44.50
2022-11-22T23:06:40.963Z,44.60
2022-11-22T23:09:13.072Z,44.60
2022-11-22T23:11:59.382Z,44.60
2022-11-22T23:14:30.857Z,44.70
2022-11-22T23:17:01.248Z,44.70
2022-11-22T23:19:30.389Z,44.70
2022-11-22T23:22:00.620Z,44.60
2022-11-22T23:24:32.995Z,44.60
2022-11-22T23:27:02.190Z,44.60
2022-11-22T23:29:31.032Z,44.50
2022-11-22T23:31:59.723Z,44.60
2022-11-22T23:34:28.435Z,44.50
2022-11-22T23:36:56.888Z,44.90
2022-11-22T23:39:26.909Z,45.00
2022-11-22T23:41:55.451Z,45.20
2022-11-22T23:44:23.924Z,45.30
2022-11-22T23:46:52.402Z,45.40
2022-11-22T23:49:20.930Z,45.40
2022-11-22T23:51:50.392Z,45.40
2022-11-22T23:54:18.990Z,45.40
2022-11-22T23:56:48.982Z,45.50
2022-11-22T23:59:18.461Z,45.40
